sensor_id;sensor_type;location;lat;lon;timestamp;P1;durP1;ratioP1;P2;durP2;ratioP2
17079;SDS011;8655;57.106;-2.088;2022-09-28T00:01:05;1.02;;;0.60;;
17079;SDS011;8655;57.106;-2.088;2022-09-28T00:03:32;1.00;;;0.73;;
17079;SDS011;8655;57.106;-2.088;2022-09-28T00:06:05;0.70;;;0.70;;
17079;SDS011;8655;57.106;-2.088;2022-09-28T00:08:33;1.05;;;0.68;;
17079;SDS011;8655;57.106;-2.088;2022-09-28T00:10:59;0.73;;;0.50;;
17079;SDS011;8655;57.106;-2.088;2022-09-28T00:13:26;0.90;;;0.82;;
17079;SDS011;8655;57.106;-2.088;2022-09-28T00:16:02;0.60;;;0.60;;
17079;SDS011;8655;57.106;-2.088;2022-09-28T00:18:30;0.70;;;0.70;;
17079;SDS011;8655;57.106;-2.088;2022-09-28T00:21:15;1.05;;;0.77;;
17079;SDS011;8655;57.106;-2.088;2022-09-28T00:23:42;1.00;;;0.40;;
17079;SDS011;8655;57.106;-2.088;2022-09-28T00:26:27;0.65;;;0.45;;
17079;SDS011;8655;57.106;-2.088;2022-09-28T00:28:56;0.70;;;0.70;;
17079;SDS011;8655;57.106;-2.088;2022-09-28T00:31:28;0.88;;;0.80;;
17079;SDS011;8655;57.106;-2.088;2022-09-28T00:33:56;0.77;;;0.70;;
17079;SDS011;8655;57.106;-2.088;2022-09-28T00:36:24;1.88;;;0.82;;
17079;SDS011;8655;57.106;-2.088;2022-09-28T00:38:52;0.70;;;0.60;;
17079;SDS011;8655;57.106;-2.088;2022-09-28T00:41:20;0.63;;;0.63;;
17079;SDS011;8655;57.106;-2.088;2022-09-28T00:43:47;1.58;;;0.60;;
17079;SDS011;8655;57.106;-2.088;2022-09-28T00:46:15;0.80;;;0.60;;
17079;SDS011;8655;57.106;-2.088;2022-09-28T00:48:57;0.90;;;0.50;;
17079;SDS011;8655;57.106;-2.088;2022-09-28T00:51:27;0.90;;;0.50;;
17079;SDS011;8655;57.106;-2.088;2022-09-28T00:53:55;0.95;;;0.60;;
17079;SDS011;8655;57.106;-2.088;2022-09-28T00:56:23;1.05;;;0.60;;
17079;SDS011;8655;57.106;-2.088;2022-09-28T00:58:51;0.65;;;0.60;;
17079;SDS011;8655;57.106;-2.088;2022-09-28T01:01:18;0.77;;;0.73;;
17079;SDS011;8655;57.106;-2.088;2022-09-28T01:03:44;1.23;;;0.60;;
17079;SDS011;8655;57.106;-2.088;2022-09-28T01:06:15;0.55;;;0.50;;
17079;SDS011;8655;57.106;-2.088;2022-09-28T01:08:44;0.55;;;0.50;;
17079;SDS011;8655;57.106;-2.088;2022-09-28T01:11:11;0.73;;;0.73;;
17079;SDS011;8655;57.106;-2.088;2022-09-28T01:13:37;0.60;;;0.60;;
17079;SDS011;8655;57.106;-2.088;2022-09-28T01:18:46;1.75;;;0.73;;
17079;SDS011;8655;57.106;-2.088;2022-09-28T01:21:24;0.50;;;0.50;;
17079;SDS011;8655;57.106;-2.088;2022-09-28T01:29:30;0.60;;;0.60;;
17079;SDS011;8655;57.106;-2.088;2022-09-28T01:32:21;0.40;;;0.40;;
17079;SDS011;8655;57.106;-2.088;2022-09-28T01:35:04;0.90;;;0.70;;
17079;SDS011;8655;57.106;-2.088;2022-09-28T01:37:49;0.63;;;0.47;;
17079;SDS011;8655;57.106;-2.088;2022-09-28T01:40:31;1.38;;;0.60;;
17079;SDS011;8655;57.106;-2.088;2022-09-28T01:43:03;0.85;;;0.57;;
17079;SDS011;8655;57.106;-2.088;2022-09-28T01:45:40;0.65;;;0.60;;
17079;SDS011;8655;57.106;-2.088;2022-09-28T01:48:14;0.68;;;0.60;;
17079;SDS011;8655;57.106;-2.088;2022-09-28T01:50:45;0.85;;;0.73;;
17079;SDS011;8655;57.106;-2.088;2022-09-28T01:56:00;1.80;;;0.73;;
17079;SDS011;8655;57.106;-2.088;2022-09-28T01:58:42;0.80;;;0.50;;
17079;SDS011;8655;57.106;-2.088;2022-09-28T02:01:18;0.65;;;0.50;;
17079;SDS011;8655;57.106;-2.088;2022-09-28T02:03:52;0.73;;;0.50;;
17079;SDS011;8655;57.106;-2.088;2022-09-28T02:06:26;0.60;;;0.50;;
17079;SDS011;8655;57.106;-2.088;2022-09-28T02:09:02;1.33;;;0.60;;
17079;SDS011;8655;57.106;-2.088;2022-09-28T02:11:37;0.77;;;0.70;;
17079;SDS011;8655;57.106;-2.088;2022-09-28T02:14:08;0.50;;;0.50;;
17079;SDS011;8655;57.106;-2.088;2022-09-28T02:16:41;0.40;;;0.40;;
17079;SDS011;8655;57.106;-2.088;2022-09-28T02:19:12;0.47;;;0.47;;
17079;SDS011;8655;57.106;-2.088;2022-09-28T02:25:29;0.65;;;0.50;;
17079;SDS011;8655;57.106;-2.088;2022-09-28T02:27:35;0.60;;;0.38;;
17079;SDS011;8655;57.106;-2.088;2022-09-28T02:30:18;0.55;;;0.50;;
17079;SDS011;8655;57.106;-2.088;2022-09-28T02:32:45;0.50;;;0.50;;
17079;SDS011;8655;57.106;-2.088;2022-09-28T02:35:14;0.85;;;0.60;;
17079;SDS011;8655;57.106;-2.088;2022-09-28T02:37:41;1.73;;;0.60;;
17079;SDS011;8655;57.106;-2.088;2022-09-28T02:40:15;0.80;;;0.68;;
17079;SDS011;8655;57.106;-2.088;2022-09-28T02:42:51;0.38;;;0.30;;
17079;SDS011;8655;57.106;-2.088;2022-09-28T02:48:27;0.50;;;0.47;;
17079;SDS011;8655;57.106;-2.088;2022-09-28T02:51:26;0.50;;;0.50;;
17079;SDS011;8655;57.106;-2.088;2022-09-28T03:02:13;0.50;;;0.50;;
17079;SDS011;8655;57.106;-2.088;2022-09-28T03:08:01;0.45;;;0.45;;
17079;SDS011;8655;57.106;-2.088;2022-09-28T03:10:40;0.47;;;0.47;;
17079;SDS011;8655;57.106;-2.088;2022-09-28T03:13:10;1.50;;;0.70;;
17079;SDS011;8655;57.106;-2.088;2022-09-28T03:15:37;0.52;;;0.50;;
17079;SDS011;8655;57.106;-2.088;2022-09-28T03:18:04;0.68;;;0.52;;
17079;SDS011;8655;57.106;-2.088;2022-09-28T03:20:30;0.40;;;0.40;;
17079;SDS011;8655;57.106;-2.088;2022-09-28T03:22:57;0.95;;;0.68;;
17079;SDS011;8655;57.106;-2.088;2022-09-28T03:25:23;0.40;;;0.40;;
17079;SDS011;8655;57.106;-2.088;2022-09-28T03:27:49;1.48;;;0.63;;
17079;SDS011;8655;57.106;-2.088;2022-09-28T03:30:14;0.40;;;0.40;;
17079;SDS011;8655;57.106;-2.088;2022-09-28T03:32:40;0.57;;;0.57;;
17079;SDS011;8655;57.106;-2.088;2022-09-28T03:35:06;0.93;;;0.50;;
17079;SDS011;8655;57.106;-2.088;2022-09-28T03:37:33;0.80;;;0.63;;
17079;SDS011;8655;57.106;-2.088;2022-09-28T03:39:59;1.30;;;0.80;;
17079;SDS011;8655;57.106;-2.088;2022-09-28T03:42:24;0.80;;;0.60;;
17079;SDS011;8655;57.106;-2.088;2022-09-28T03:44:50;0.60;;;0.50;;
17079;SDS011;8655;57.106;-2.088;2022-09-28T03:47:16;1.23;;;0.50;;
17079;SDS011;8655;57.106;-2.088;2022-09-28T03:49:43;0.30;;;0.30;;
17079;SDS011;8655;57.106;-2.088;2022-09-28T03:52:10;0.55;;;0.55;;
17079;SDS011;8655;57.106;-2.088;2022-09-28T03:54:36;1.05;;;0.52;;
17079;SDS011;8655;57.106;-2.088;2022-09-28T03:57:02;0.65;;;0.55;;
17079;SDS011;8655;57.106;-2.088;2022-09-28T03:59:28;0.83;;;0.50;;
17079;SDS011;8655;57.106;-2.088;2022-09-28T04:01:54;0.82;;;0.50;;
17079;SDS011;8655;57.106;-2.088;2022-09-28T04:04:21;0.82;;;0.50;;
17079;SDS011;8655;57.106;-2.088;2022-09-28T04:06:46;1.13;;;0.73;;
17079;SDS011;8655;57.106;-2.088;2022-09-28T04:09:12;0.55;;;0.55;;
17079;SDS011;8655;57.106;-2.088;2022-09-28T04:11:38;0.75;;;0.40;;
17079;SDS011;8655;57.106;-2.088;2022-09-28T04:14:04;1.00;;;0.57;;
17079;SDS011;8655;57.106;-2.088;2022-09-28T04:16:29;0.93;;;0.50;;
17079;SDS011;8655;57.106;-2.088;2022-09-28T04:18:56;0.65;;;0.50;;
17079;SDS011;8655;57.106;-2.088;2022-09-28T04:21:23;0.40;;;0.40;;
17079;SDS011;8655;57.106;-2.088;2022-09-28T04:23:49;0.73;;;0.45;;
17079;SDS011;8655;57.106;-2.088;2022-09-28T04:26:26;0.70;;;0.55;;
17079;SDS011;8655;57.106;-2.088;2022-09-28T04:28:52;0.47;;;0.35;;
17079;SDS011;8655;57.106;-2.088;2022-09-28T04:31:37;0.95;;;0.55;;
17079;SDS011;8655;57.106;-2.088;2022-09-28T04:34:05;0.65;;;0.43;;
17079;SDS011;8655;57.106;-2.088;2022-09-28T04:36:31;0.45;;;0.45;;
17079;SDS011;8655;57.106;-2.088;2022-09-28T04:38:57;0.88;;;0.40;;
17079;SDS011;8655;57.106;-2.088;2022-09-28T04:41:22;0.68;;;0.60;;
17079;SDS011;8655;57.106;-2.088;2022-09-28T04:43:48;0.98;;;0.70;;
17079;SDS011;8655;57.106;-2.088;2022-09-28T04:46:14;0.45;;;0.40;;
17079;SDS011;8655;57.106;-2.088;2022-09-28T04:48:40;0.35;;;0.35;;
17079;SDS011;8655;57.106;-2.088;2022-09-28T04:51:06;0.40;;;0.40;;
17079;SDS011;8655;57.106;-2.088;2022-09-28T04:53:32;0.85;;;0.50;;
17079;SDS011;8655;57.106;-2.088;2022-09-28T04:58:25;0.82;;;0.50;;
17079;SDS011;8655;57.106;-2.088;2022-09-28T05:00:51;0.77;;;0.63;;
17079;SDS011;8655;57.106;-2.088;2022-09-28T05:03:20;0.65;;;0.50;;
17079;SDS011;8655;57.106;-2.088;2022-09-28T05:05:46;0.75;;;0.52;;
17079;SDS011;8655;57.106;-2.088;2022-09-28T05:08:13;0.65;;;0.50;;
17079;SDS011;8655;57.106;-2.088;2022-09-28T05:10:39;0.88;;;0.57;;
17079;SDS011;8655;57.106;-2.088;2022-09-28T05:13:05;0.50;;;0.50;;
17079;SDS011;8655;57.106;-2.088;2022-09-28T05:15:35;0.63;;;0.63;;
17079;SDS011;8655;57.106;-2.088;2022-09-28T05:18:01;1.00;;;0.52;;
17079;SDS011;8655;57.106;-2.088;2022-09-28T05:20:27;1.08;;;0.50;;
17079;SDS011;8655;57.106;-2.088;2022-09-28T05:22:53;0.80;;;0.50;;
17079;SDS011;8655;57.106;-2.088;2022-09-28T05:25:19;0.47;;;0.47;;
17079;SDS011;8655;57.106;-2.088;2022-09-28T05:27:45;0.77;;;0.60;;
17079;SDS011;8655;57.106;-2.088;2022-09-28T05:30:10;0.50;;;0.50;;
17079;SDS011;8655;57.106;-2.088;2022-09-28T05:32:39;0.73;;;0.43;;
17079;SDS011;8655;57.106;-2.088;2022-09-28T05:35:06;0.80;;;0.60;;
17079;SDS011;8655;57.106;-2.088;2022-09-28T05:37:32;0.43;;;0.43;;
17079;SDS011;8655;57.106;-2.088;2022-09-28T05:40:00;0.70;;;0.50;;
17079;SDS011;8655;57.106;-2.088;2022-09-28T05:42:26;1.20;;;0.70;;
17079;SDS011;8655;57.106;-2.088;2022-09-28T05:44:51;0.50;;;0.50;;
17079;SDS011;8655;57.106;-2.088;2022-09-28T05:47:17;0.40;;;0.40;;
17079;SDS011;8655;57.106;-2.088;2022-09-28T05:49:43;0.40;;;0.40;;
17079;SDS011;8655;57.106;-2.088;2022-09-28T05:52:08;0.85;;;0.50;;
17079;SDS011;8655;57.106;-2.088;2022-09-28T05:54:34;0.67;;;0.53;;
17079;SDS011;8655;57.106;-2.088;2022-09-28T05:57:00;0.50;;;0.40;;
17079;SDS011;8655;57.106;-2.088;2022-09-28T05:59:25;0.63;;;0.55;;
17079;SDS011;8655;57.106;-2.088;2022-09-28T06:01:51;1.07;;;0.70;;
17079;SDS011;8655;57.106;-2.088;2022-09-28T06:04:17;0.80;;;0.50;;
17079;SDS011;8655;57.106;-2.088;2022-09-28T06:06:42;1.02;;;0.50;;
17079;SDS011;8655;57.106;-2.088;2022-09-28T06:09:08;1.67;;;0.60;;
17079;SDS011;8655;57.106;-2.088;2022-09-28T06:11:34;1.57;;;0.60;;
17079;SDS011;8655;57.106;-2.088;2022-09-28T06:14:00;0.97;;;0.60;;
17079;SDS011;8655;57.106;-2.088;2022-09-28T06:16:25;1.27;;;0.60;;
17079;SDS011;8655;57.106;-2.088;2022-09-28T06:18:51;1.40;;;0.77;;
17079;SDS011;8655;57.106;-2.088;2022-09-28T06:21:16;0.65;;;0.40;;
17079;SDS011;8655;57.106;-2.088;2022-09-28T06:23:42;0.77;;;0.60;;
17079;SDS011;8655;57.106;-2.088;2022-09-28T06:26:08;0.65;;;0.65;;
17079;SDS011;8655;57.106;-2.088;2022-09-28T06:28:34;0.80;;;0.43;;
17079;SDS011;8655;57.106;-2.088;2022-09-28T06:31:01;0.77;;;0.60;;
17079;SDS011;8655;57.106;-2.088;2022-09-28T06:33:26;0.80;;;0.63;;
17079;SDS011;8655;57.106;-2.088;2022-09-28T06:35:52;0.30;;;0.30;;
17079;SDS011;8655;57.106;-2.088;2022-09-28T06:38:18;0.50;;;0.43;;
17079;SDS011;8655;57.106;-2.088;2022-09-28T06:40:43;1.57;;;0.87;;
17079;SDS011;8655;57.106;-2.088;2022-09-28T06:43:10;0.68;;;0.40;;
17079;SDS011;8655;57.106;-2.088;2022-09-28T06:45:38;0.68;;;0.50;;
17079;SDS011;8655;57.106;-2.088;2022-09-28T06:48:05;0.88;;;0.57;;
17079;SDS011;8655;57.106;-2.088;2022-09-28T06:50:40;0.93;;;0.50;;
17079;SDS011;8655;57.106;-2.088;2022-09-28T06:53:07;0.87;;;0.40;;
17079;SDS011;8655;57.106;-2.088;2022-09-28T06:55:38;0.32;;;0.32;;
17079;SDS011;8655;57.106;-2.088;2022-09-28T06:58:09;0.43;;;0.40;;
17079;SDS011;8655;57.106;-2.088;2022-09-28T07:00:36;1.27;;;0.57;;
17079;SDS011;8655;57.106;-2.088;2022-09-28T07:03:04;0.50;;;0.40;;
17079;SDS011;8655;57.106;-2.088;2022-09-28T07:05:46;1.33;;;0.50;;
17079;SDS011;8655;57.106;-2.088;2022-09-28T07:08:14;0.50;;;0.50;;
17079;SDS011;8655;57.106;-2.088;2022-09-28T07:10:44;0.73;;;0.57;;
17079;SDS011;8655;57.106;-2.088;2022-09-28T07:13:11;1.17;;;0.40;;
17079;SDS011;8655;57.106;-2.088;2022-09-28T07:15:38;0.90;;;0.60;;
17079;SDS011;8655;57.106;-2.088;2022-09-28T07:18:04;0.70;;;0.63;;
17079;SDS011;8655;57.106;-2.088;2022-09-28T07:20:32;0.57;;;0.50;;
17079;SDS011;8655;57.106;-2.088;2022-09-28T07:23:00;0.73;;;0.47;;
17079;SDS011;8655;57.106;-2.088;2022-09-28T07:25:28;0.70;;;0.50;;
17079;SDS011;8655;57.106;-2.088;2022-09-28T07:27:55;0.50;;;0.43;;
17079;SDS011;8655;57.106;-2.088;2022-09-28T07:30:25;0.38;;;0.38;;
17079;SDS011;8655;57.106;-2.088;2022-09-28T07:32:53;0.50;;;0.50;;
17079;SDS011;8655;57.106;-2.088;2022-09-28T07:35:19;0.60;;;0.40;;
17079;SDS011;8655;57.106;-2.088;2022-09-28T07:37:46;1.33;;;0.70;;
17079;SDS011;8655;57.106;-2.088;2022-09-28T07:40:12;1.05;;;0.68;;
17079;SDS011;8655;57.106;-2.088;2022-09-28T07:43:02;0.70;;;0.50;;
17079;SDS011;8655;57.106;-2.088;2022-09-28T07:45:28;0.50;;;0.47;;
17079;SDS011;8655;57.106;-2.088;2022-09-28T07:47:55;0.38;;;0.38;;
17079;SDS011;8655;57.106;-2.088;2022-09-28T07:50:21;1.00;;;0.47;;
17079;SDS011;8655;57.106;-2.088;2022-09-28T07:52:47;0.55;;;0.50;;
17079;SDS011;8655;57.106;-2.088;2022-09-28T07:55:13;0.65;;;0.45;;
17079;SDS011;8655;57.106;-2.088;2022-09-28T07:57:39;0.95;;;0.52;;
17079;SDS011;8655;57.106;-2.088;2022-09-28T08:00:04;0.60;;;0.60;;
17079;SDS011;8655;57.106;-2.088;2022-09-28T08:02:33;0.37;;;0.30;;
17079;SDS011;8655;57.106;-2.088;2022-09-28T08:04:59;0.93;;;0.60;;
17079;SDS011;8655;57.106;-2.088;2022-09-28T08:07:26;0.90;;;0.43;;
17079;SDS011;8655;57.106;-2.088;2022-09-28T08:09:52;1.50;;;0.60;;
17079;SDS011;8655;57.106;-2.088;2022-09-28T08:12:18;0.87;;;0.70;;
17079;SDS011;8655;57.106;-2.088;2022-09-28T08:14:45;0.60;;;0.40;;
17079;SDS011;8655;57.106;-2.088;2022-09-28T08:17:11;0.70;;;0.60;;
17079;SDS011;8655;57.106;-2.088;2022-09-28T08:19:37;0.30;;;0.30;;
17079;SDS011;8655;57.106;-2.088;2022-09-28T08:22:21;0.95;;;0.60;;
17079;SDS011;8655;57.106;-2.088;2022-09-28T08:24:47;1.43;;;0.70;;
17079;SDS011;8655;57.106;-2.088;2022-09-28T08:27:13;0.47;;;0.47;;
17079;SDS011;8655;57.106;-2.088;2022-09-28T08:29:40;0.83;;;0.43;;
17079;SDS011;8655;57.106;-2.088;2022-09-28T08:32:07;0.30;;;0.30;;
17079;SDS011;8655;57.106;-2.088;2022-09-28T08:34:38;0.57;;;0.40;;
17079;SDS011;8655;57.106;-2.088;2022-09-28T08:37:06;0.73;;;0.50;;
17079;SDS011;8655;57.106;-2.088;2022-09-28T08:39:33;1.37;;;0.47;;
17079;SDS011;8655;57.106;-2.088;2022-09-28T08:44:42;0.88;;;0.50;;
17079;SDS011;8655;57.106;-2.088;2022-09-28T08:47:28;0.50;;;0.40;;
17079;SDS011;8655;57.106;-2.088;2022-09-28T08:50:22;0.63;;;0.50;;
17079;SDS011;8655;57.106;-2.088;2022-09-28T08:52:54;1.00;;;0.60;;
17079;SDS011;8655;57.106;-2.088;2022-09-28T08:55:40;0.50;;;0.50;;
17079;SDS011;8655;57.106;-2.088;2022-09-28T08:58:22;1.67;;;0.63;;
17079;SDS011;8655;57.106;-2.088;2022-09-28T09:00:52;1.27;;;0.50;;
17079;SDS011;8655;57.106;-2.088;2022-09-28T09:08:32;0.30;;;0.30;;
17079;SDS011;8655;57.106;-2.088;2022-09-28T09:19:21;0.80;;;0.60;;
17079;SDS011;8655;57.106;-2.088;2022-09-28T09:21:58;1.02;;;0.52;;
17079;SDS011;8655;57.106;-2.088;2022-09-28T09:24:40;1.43;;;0.70;;
17079;SDS011;8655;57.106;-2.088;2022-09-28T09:30:02;1.10;;;0.47;;
17079;SDS011;8655;57.106;-2.088;2022-09-28T09:32:34;1.13;;;0.70;;
17079;SDS011;8655;57.106;-2.088;2022-09-28T09:41:34;0.97;;;0.50;;
17079;SDS011;8655;57.106;-2.088;2022-09-28T09:46:22;0.77;;;0.40;;
17079;SDS011;8655;57.106;-2.088;2022-09-28T09:48:58;1.00;;;0.50;;
17079;SDS011;8655;57.106;-2.088;2022-09-28T09:51:36;0.70;;;0.50;;
17079;SDS011;8655;57.106;-2.088;2022-09-28T09:54:05;1.02;;;0.82;;
17079;SDS011;8655;57.106;-2.088;2022-09-28T09:56:58;1.30;;;0.57;;
17079;SDS011;8655;57.106;-2.088;2022-09-28T09:59:33;0.60;;;0.60;;
17079;SDS011;8655;57.106;-2.088;2022-09-28T10:04:47;1.63;;;0.80;;
17079;SDS011;8655;57.106;-2.088;2022-09-28T10:07:23;0.90;;;0.60;;
17079;SDS011;8655;57.106;-2.088;2022-09-28T10:10:15;1.07;;;0.70;;
17079;SDS011;8655;57.106;-2.088;2022-09-28T10:12:45;1.85;;;0.60;;
17079;SDS011;8655;57.106;-2.088;2022-09-28T10:15:14;1.42;;;0.80;;
17079;SDS011;8655;57.106;-2.088;2022-09-28T10:17:44;1.60;;;0.50;;
17079;SDS011;8655;57.106;-2.088;2022-09-28T10:20:13;1.43;;;0.60;;
17079;SDS011;8655;57.106;-2.088;2022-09-28T10:22:40;1.37;;;0.60;;
17079;SDS011;8655;57.106;-2.088;2022-09-28T10:25:06;1.77;;;0.70;;
17079;SDS011;8655;57.106;-2.088;2022-09-28T10:27:34;1.13;;;0.50;;
17079;SDS011;8655;57.106;-2.088;2022-09-28T10:32:35;1.27;;;0.52;;
17079;SDS011;8655;57.106;-2.088;2022-09-28T10:43:05;0.90;;;0.50;;
17079;SDS011;8655;57.106;-2.088;2022-09-28T10:45:41;2.10;;;0.70;;
17079;SDS011;8655;57.106;-2.088;2022-09-28T10:51:19;2.13;;;0.80;;
17079;SDS011;8655;57.106;-2.088;2022-09-28T10:54:04;1.33;;;0.80;;
17079;SDS011;8655;57.106;-2.088;2022-09-28T10:56:37;1.53;;;0.60;;
17079;SDS011;8655;57.106;-2.088;2022-09-28T11:01:59;1.13;;;0.57;;
17079;SDS011;8655;57.106;-2.088;2022-09-28T11:04:26;1.33;;;0.80;;
17079;SDS011;8655;57.106;-2.088;2022-09-28T11:06:54;1.13;;;0.77;;
17079;SDS011;8655;57.106;-2.088;2022-09-28T11:11:48;1.40;;;0.70;;
17079;SDS011;8655;57.106;-2.088;2022-09-28T11:14:24;1.75;;;0.80;;
17079;SDS011;8655;57.106;-2.088;2022-09-28T11:17:23;1.87;;;1.00;;
17079;SDS011;8655;57.106;-2.088;2022-09-28T11:20:00;0.95;;;0.57;;
17079;SDS011;8655;57.106;-2.088;2022-09-28T11:22:45;1.27;;;0.67;;
17079;SDS011;8655;57.106;-2.088;2022-09-28T11:25:17;1.37;;;0.80;;
17079;SDS011;8655;57.106;-2.088;2022-09-28T11:30:27;2.30;;;0.80;;
17079;SDS011;8655;57.106;-2.088;2022-09-28T11:33:02;0.83;;;0.50;;
17079;SDS011;8655;57.106;-2.088;2022-09-28T11:57:55;1.55;;;0.90;;
17079;SDS011;8655;57.106;-2.088;2022-09-28T12:00:29;1.95;;;0.98;;
17079;SDS011;8655;57.106;-2.088;2022-09-28T12:03:02;1.00;;;0.70;;
17079;SDS011;8655;57.106;-2.088;2022-09-28T12:05:49;1.55;;;0.90;;
17079;SDS011;8655;57.106;-2.088;2022-09-28T12:08:32;1.93;;;0.90;;
17079;SDS011;8655;57.106;-2.088;2022-09-28T12:11:23;1.75;;;0.80;;
17079;SDS011;8655;57.106;-2.088;2022-09-28T12:14:29;1.85;;;0.95;;
17079;SDS011;8655;57.106;-2.088;2022-09-28T12:17:00;1.55;;;0.60;;
17079;SDS011;8655;57.106;-2.088;2022-09-28T12:22:24;1.93;;;0.70;;
17079;SDS011;8655;57.106;-2.088;2022-09-28T12:25:04;1.97;;;0.80;;
17079;SDS011;8655;57.106;-2.088;2022-09-28T12:27:54;2.17;;;1.08;;
17079;SDS011;8655;57.106;-2.088;2022-09-28T12:30:23;1.70;;;1.07;;
17079;SDS011;8655;57.106;-2.088;2022-09-28T12:32:56;1.90;;;1.13;;
17079;SDS011;8655;57.106;-2.088;2022-09-28T12:46:41;1.97;;;1.00;;
17079;SDS011;8655;57.106;-2.088;2022-09-28T12:49:20;2.22;;;0.98;;
17079;SDS011;8655;57.106;-2.088;2022-09-28T12:51:54;2.58;;;0.95;;
17079;SDS011;8655;57.106;-2.088;2022-09-28T12:54:32;2.37;;;1.10;;
17079;SDS011;8655;57.106;-2.088;2022-09-28T13:00:03;2.28;;;1.10;;
17079;SDS011;8655;57.106;-2.088;2022-09-28T13:02:46;1.63;;;0.80;;
17079;SDS011;8655;57.106;-2.088;2022-09-28T13:10:40;2.20;;;0.90;;
17079;SDS011;8655;57.106;-2.088;2022-09-28T13:13:42;2.53;;;1.30;;
17079;SDS011;8655;57.106;-2.088;2022-09-28T13:19:18;2.73;;;1.10;;
17079;SDS011;8655;57.106;-2.088;2022-09-28T13:24:21;3.50;;;1.03;;
17079;SDS011;8655;57.106;-2.088;2022-09-28T13:26:50;3.33;;;1.10;;
17079;SDS011;8655;57.106;-2.088;2022-09-28T13:29:18;2.07;;;1.00;;
17079;SDS011;8655;57.106;-2.088;2022-09-28T13:31:47;3.17;;;1.30;;
17079;SDS011;8655;57.106;-2.088;2022-09-28T13:34:23;2.00;;;0.90;;
17079;SDS011;8655;57.106;-2.088;2022-09-28T13:39:46;2.50;;;1.17;;
17079;SDS011;8655;57.106;-2.088;2022-09-28T13:55:52;2.50;;;1.10;;
17079;SDS011;8655;57.106;-2.088;2022-09-28T13:58:37;2.70;;;1.07;;
17079;SDS011;8655;57.106;-2.088;2022-09-28T14:01:18;4.20;;;1.23;;
17079;SDS011;8655;57.106;-2.088;2022-09-28T14:06:34;3.57;;;1.50;;
17079;SDS011;8655;57.106;-2.088;2022-09-28T14:16:35;1.87;;;1.00;;
17079;SDS011;8655;57.106;-2.088;2022-09-28T14:32:38;3.90;;;1.40;;
17079;SDS011;8655;57.106;-2.088;2022-09-28T14:37:47;3.63;;;1.20;;
17079;SDS011;8655;57.106;-2.088;2022-09-28T14:49:41;1.93;;;0.97;;
17079;SDS011;8655;57.106;-2.088;2022-09-28T14:54:20;4.40;;;1.67;;
17079;SDS011;8655;57.106;-2.088;2022-09-28T15:01:58;4.90;;;1.30;;
17079;SDS011;8655;57.106;-2.088;2022-09-28T15:04:30;5.37;;;1.40;;
17079;SDS011;8655;57.106;-2.088;2022-09-28T15:07:00;4.43;;;1.70;;
17079;SDS011;8655;57.106;-2.088;2022-09-28T15:09:26;4.47;;;1.43;;
17079;SDS011;8655;57.106;-2.088;2022-09-28T15:12:00;3.03;;;1.40;;
17079;SDS011;8655;57.106;-2.088;2022-09-28T15:17:12;2.33;;;1.20;;
17079;SDS011;8655;57.106;-2.088;2022-09-28T15:19:46;2.60;;;1.27;;
17079;SDS011;8655;57.106;-2.088;2022-09-28T15:22:27;3.60;;;1.50;;
17079;SDS011;8655;57.106;-2.088;2022-09-28T15:25:00;4.50;;;1.60;;
17079;SDS011;8655;57.106;-2.088;2022-09-28T15:27:35;2.80;;;1.30;;
17079;SDS011;8655;57.106;-2.088;2022-09-28T15:32:54;2.37;;;1.23;;
17079;SDS011;8655;57.106;-2.088;2022-09-28T15:35:41;3.40;;;1.50;;
17079;SDS011;8655;57.106;-2.088;2022-09-28T15:38:09;3.17;;;1.30;;
17079;SDS011;8655;57.106;-2.088;2022-09-28T15:40:39;3.43;;;1.40;;
17079;SDS011;8655;57.106;-2.088;2022-09-28T15:43:11;4.33;;;1.50;;
17079;SDS011;8655;57.106;-2.088;2022-09-28T15:45:54;4.35;;;1.58;;
17079;SDS011;8655;57.106;-2.088;2022-09-28T15:48:33;3.33;;;1.50;;
17079;SDS011;8655;57.106;-2.088;2022-09-28T15:51:03;4.17;;;1.50;;
17079;SDS011;8655;57.106;-2.088;2022-09-28T16:01:46;2.77;;;1.30;;
17079;SDS011;8655;57.106;-2.088;2022-09-28T16:04:34;2.40;;;1.23;;
17079;SDS011;8655;57.106;-2.088;2022-09-28T16:07:03;3.50;;;1.40;;
17079;SDS011;8655;57.106;-2.088;2022-09-28T16:15:02;5.20;;;1.80;;
17079;SDS011;8655;57.106;-2.088;2022-09-28T16:17:42;2.83;;;1.23;;
17079;SDS011;8655;57.106;-2.088;2022-09-28T16:20:36;3.57;;;1.40;;
17079;SDS011;8655;57.106;-2.088;2022-09-28T16:33:39;3.07;;;1.57;;
17079;SDS011;8655;57.106;-2.088;2022-09-28T16:36:37;3.63;;;1.40;;
17079;SDS011;8655;57.106;-2.088;2022-09-28T16:39:07;4.17;;;1.60;;
17079;SDS011;8655;57.106;-2.088;2022-09-28T16:41:35;4.23;;;1.50;;
17079;SDS011;8655;57.106;-2.088;2022-09-28T16:44:03;3.03;;;1.40;;
17079;SDS011;8655;57.106;-2.088;2022-09-28T16:46:36;4.27;;;1.60;;
17079;SDS011;8655;57.106;-2.088;2022-09-28T16:49:03;4.87;;;1.70;;
17079;SDS011;8655;57.106;-2.088;2022-09-28T16:51:30;3.07;;;1.40;;
17079;SDS011;8655;57.106;-2.088;2022-09-28T16:54:11;4.57;;;1.20;;
17079;SDS011;8655;57.106;-2.088;2022-09-28T16:57:00;3.30;;;1.40;;
17079;SDS011;8655;57.106;-2.088;2022-09-28T16:59:27;4.13;;;1.40;;
17079;SDS011;8655;57.106;-2.088;2022-09-28T17:01:53;3.70;;;1.50;;
17079;SDS011;8655;57.106;-2.088;2022-09-28T17:04:23;5.50;;;1.70;;
17079;SDS011;8655;57.106;-2.088;2022-09-28T17:06:49;3.50;;;1.43;;
17079;SDS011;8655;57.106;-2.088;2022-09-28T17:09:17;2.75;;;1.40;;
17079;SDS011;8655;57.106;-2.088;2022-09-28T17:11:45;2.43;;;1.43;;
17079;SDS011;8655;57.106;-2.088;2022-09-28T17:14:11;4.23;;;1.80;;
17079;SDS011;8655;57.106;-2.088;2022-09-28T17:16:38;3.78;;;1.65;;
17079;SDS011;8655;57.106;-2.088;2022-09-28T17:19:18;3.77;;;1.47;;
17079;SDS011;8655;57.106;-2.088;2022-09-28T17:21:45;4.67;;;1.40;;
17079;SDS011;8655;57.106;-2.088;2022-09-28T17:24:12;3.13;;;1.30;;
17079;SDS011;8655;57.106;-2.088;2022-09-28T17:26:37;3.17;;;1.42;;
17079;SDS011;8655;57.106;-2.088;2022-09-28T17:29:03;4.10;;;1.50;;
17079;SDS011;8655;57.106;-2.088;2022-09-28T17:31:32;4.00;;;1.60;;
17079;SDS011;8655;57.106;-2.088;2022-09-28T17:33:58;4.43;;;1.67;;
17079;SDS011;8655;57.106;-2.088;2022-09-28T17:36:24;4.00;;;1.40;;
17079;SDS011;8655;57.106;-2.088;2022-09-28T17:38:50;3.13;;;1.43;;
17079;SDS011;8655;57.106;-2.088;2022-09-28T17:41:17;4.23;;;1.60;;
17079;SDS011;8655;57.106;-2.088;2022-09-28T17:43:44;3.87;;;1.40;;
17079;SDS011;8655;57.106;-2.088;2022-09-28T17:46:22;3.43;;;1.60;;
17079;SDS011;8655;57.106;-2.088;2022-09-28T17:48:56;3.60;;;1.50;;
17079;SDS011;8655;57.106;-2.088;2022-09-28T17:51:24;3.53;;;1.48;;
17079;SDS011;8655;57.106;-2.088;2022-09-28T17:53:50;4.73;;;1.60;;
17079;SDS011;8655;57.106;-2.088;2022-09-28T17:56:18;4.30;;;1.63;;
17079;SDS011;8655;57.106;-2.088;2022-09-28T17:58:44;4.07;;;1.50;;
17079;SDS011;8655;57.106;-2.088;2022-09-28T18:01:09;4.23;;;1.40;;
17079;SDS011;8655;57.106;-2.088;2022-09-28T18:03:35;3.60;;;1.60;;
17079;SDS011;8655;57.106;-2.088;2022-09-28T18:06:06;2.70;;;1.47;;
17079;SDS011;8655;57.106;-2.088;2022-09-28T18:08:37;4.50;;;1.73;;
17079;SDS011;8655;57.106;-2.088;2022-09-28T18:11:03;4.00;;;1.73;;
17079;SDS011;8655;57.106;-2.088;2022-09-28T18:13:29;5.67;;;1.80;;
17079;SDS011;8655;57.106;-2.088;2022-09-28T18:15:54;4.07;;;1.67;;
17079;SDS011;8655;57.106;-2.088;2022-09-28T18:18:20;3.63;;;1.80;;
17079;SDS011;8655;57.106;-2.088;2022-09-28T18:20:47;3.97;;;1.92;;
17079;SDS011;8655;57.106;-2.088;2022-09-28T18:23:13;3.47;;;1.80;;
17079;SDS011;8655;57.106;-2.088;2022-09-28T18:25:39;4.55;;;1.90;;
17079;SDS011;8655;57.106;-2.088;2022-09-28T18:28:06;4.07;;;1.53;;
17079;SDS011;8655;57.106;-2.088;2022-09-28T18:30:32;3.53;;;1.40;;
17079;SDS011;8655;57.106;-2.088;2022-09-28T18:32:57;4.63;;;2.03;;
17079;SDS011;8655;57.106;-2.088;2022-09-28T18:35:23;5.47;;;1.60;;
17079;SDS011;8655;57.106;-2.088;2022-09-28T18:37:49;3.60;;;1.50;;
17079;SDS011;8655;57.106;-2.088;2022-09-28T18:40:15;3.90;;;1.50;;
17079;SDS011;8655;57.106;-2.088;2022-09-28T18:42:41;4.05;;;1.55;;
17079;SDS011;8655;57.106;-2.088;2022-09-28T18:45:07;4.80;;;1.63;;
17079;SDS011;8655;57.106;-2.088;2022-09-28T18:47:37;4.37;;;1.67;;
17079;SDS011;8655;57.106;-2.088;2022-09-28T18:50:03;3.23;;;1.33;;
17079;SDS011;8655;57.106;-2.088;2022-09-28T18:52:30;5.27;;;1.87;;